sensor_id;sensor_type;location;lat;lon;timestamp;pressure;altitude;pressure_sealevel;temperature;humidity
79538;BME280;68989;52.032;5.152;2024-03-23T00:55:11;101194.81;;;14.30;60.57
79538;BME280;68989;52.032;5.152;2024-03-23T00:57:38;101190.71;;;14.30;60.59
79538;BME280;68989;52.032;5.152;2024-03-23T01:00:06;101190.72;;;14.29;60.50
79538;BME280;68989;52.032;5.152;2024-03-23T01:02:33;101192.90;;;14.29;60.45
79538;BME280;68989;52.032;5.152;2024-03-23T01:05:00;101193.34;;;14.28;60.46
79538;BME280;68989;52.032;5.152;2024-03-23T01:07:26;101186.96;;;14.28;60.42
79538;BME280;68989;52.032;5.152;2024-03-23T01:09:53;101180.28;;;14.27;60.41
79538;BME280;68989;52.032;5.152;2024-03-23T01:12:20;101179.48;;;14.27;60.45
79538;BME280;68989;52.032;5.152;2024-03-23T01:14:47;101176.30;;;14.26;60.35
79538;BME280;68989;52.032;5.152;2024-03-23T01:17:14;101175.98;;;14.26;60.38
79538;BME280;68989;52.032;5.152;2024-03-23T01:19:41;101171.94;;;14.25;60.19
79538;BME280;68989;52.032;5.152;2024-03-23T01:22:09;101162.15;;;14.25;60.32
79538;BME280;68989;52.032;5.152;2024-03-23T01:24:36;101156.72;;;14.23;60.26
79538;BME280;68989;52.032;5.152;2024-03-23T01:27:03;101156.18;;;14.22;60.20
79538;BME280;68989;52.032;5.152;2024-03-23T01:29:30;101151.80;;;14.20;60.29
79538;BME280;68989;52.032;5.152;2024-03-23T01:31:58;101150.10;;;14.18;60.25
79538;BME280;68989;52.032;5.152;2024-03-23T01:34:24;101149.44;;;14.16;60.06
79538;BME280;68989;52.032;5.152;2024-03-23T01:36:52;101144.17;;;14.14;59.97
79538;BME280;68989;52.032;5.152;2024-03-23T01:39:19;101148.73;;;14.11;60.09
79538;BME280;68989;52.032;5.152;2024-03-23T01:41:45;101145.89;;;14.07;59.98
79538;BME280;68989;52.032;5.152;2024-03-23T01:44:13;101141.54;;;14.04;59.68
79538;BME280;68989;52.032;5.152;2024-03-23T01:46:40;101137.79;;;14.01;59.57
79538;BME280;68989;52.032;5.152;2024-03-23T01:49:07;101136.08;;;13.98;59.64
79538;BME280;68989;52.032;5.152;2024-03-23T01:51:36;101140.26;;;13.93;59.58
79538;BME280;68989;52.032;5.152;2024-03-23T01:54:05;101136.16;;;13.89;59.52
79538;BME280;68989;52.032;5.152;2024-03-23T01:56:33;101132.23;;;13.86;59.35
79538;BME280;68989;52.032;5.152;2024-03-23T01:59:00;101131.22;;;13.82;59.36
79538;BME280;68989;52.032;5.152;2024-03-23T02:01:38;101129.27;;;13.78;59.40
79538;BME280;68989;52.032;5.152;2024-03-23T02:04:06;101130.81;;;13.75;59.37
79538;BME280;68989;52.032;5.152;2024-03-23T02:06:33;101131.95;;;13.71;59.46
79538;BME280;68989;52.032;5.152;2024-03-23T02:09:00;101134.70;;;13.69;59.51
79538;BME280;68989;52.032;5.152;2024-03-23T02:11:28;101134.07;;;13.65;59.18
79538;BME280;68989;52.032;5.152;2024-03-23T02:13:56;101132.72;;;13.61;59.10
79538;BME280;68989;52.032;5.152;2024-03-23T02:16:23;101130.58;;;13.59;59.27
79538;BME280;68989;52.032;5.152;2024-03-23T02:18:50;101130.39;;;13.56;59.21
79538;BME280;68989;52.032;5.152;2024-03-23T02:21:17;101124.78;;;13.54;59.22
79538;BME280;68989;52.032;5.152;2024-03-23T02:23:45;101120.93;;;13.51;59.40
79538;BME280;68989;52.032;5.152;2024-03-23T02:26:12;101117.89;;;13.49;59.27
79538;BME280;68989;52.032;5.152;2024-03-23T02:28:39;101114.52;;;13.47;59.01
79538;BME280;68989;52.032;5.152;2024-03-23T02:31:06;101111.76;;;13.44;59.10
79538;BME280;68989;52.032;5.152;2024-03-23T02:33:33;101111.49;;;13.42;59.24
79538;BME280;68989;52.032;5.152;2024-03-23T02:36:00;101112.13;;;13.39;59.25
79538;BME280;68989;52.032;5.152;2024-03-23T02:38:27;101114.78;;;13.38;59.11
79538;BME280;68989;52.032;5.152;2024-03-23T02:40:54;101117.27;;;13.35;59.17
79538;BME280;68989;52.032;5.152;2024-03-23T02:43:21;101114.43;;;13.34;59.03
79538;BME280;68989;52.032;5.152;2024-03-23T02:45:48;101110.99;;;13.31;58.97
79538;BME280;68989;52.032;5.152;2024-03-23T02:48:15;101109.56;;;13.28;58.91
79538;BME280;68989;52.032;5.152;2024-03-23T02:50:42;101111.53;;;13.25;58.87
79538;BME280;68989;52.032;5.152;2024-03-23T02:53:09;101110.07;;;13.23;58.92
79538;BME280;68989;52.032;5.152;2024-03-23T02:55:36;101111.40;;;13.21;58.89
79538;BME280;68989;52.032;5.152;2024-03-23T02:58:03;101112.11;;;13.18;59.01
79538;BME280;68989;52.032;5.152;2024-03-23T03:00:29;101113.27;;;13.15;58.87
79538;BME280;68989;52.032;5.152;2024-03-23T03:02:56;101114.94;;;13.13;58.72
79538;BME280;68989;52.032;5.152;2024-03-23T03:05:23;101112.43;;;13.10;58.87
79538;BME280;68989;52.032;5.152;2024-03-23T03:07:50;101111.78;;;13.08;58.76
79538;BME280;68989;52.032;5.152;2024-03-23T03:10:17;101110.19;;;13.05;58.60
79538;BME280;68989;52.032;5.152;2024-03-23T03:12:43;101109.86;;;13.03;58.76
79538;BME280;68989;52.032;5.152;2024-03-23T03:15:10;101104.38;;;13.00;58.52
79538;BME280;68989;52.032;5.152;2024-03-23T03:17:39;101102.73;;;12.96;58.68
79538;BME280;68989;52.032;5.152;2024-03-23T03:20:07;101103.06;;;12.94;58.66
79538;BME280;68989;52.032;5.152;2024-03-23T03:22:35;101102.89;;;12.91;58.59
79538;BME280;68989;52.032;5.152;2024-03-23T03:25:01;101101.96;;;12.89;58.51
79538;BME280;68989;52.032;5.152;2024-03-23T03:27:28;101100.71;;;12.86;58.55
79538;BME280;68989;52.032;5.152;2024-03-23T03:29:55;101098.91;;;12.83;58.50
79538;BME280;68989;52.032;5.152;2024-03-23T03:32:22;101098.83;;;12.81;58.54
79538;BME280;68989;52.032;5.152;2024-03-23T03:34:49;101098.76;;;12.78;58.43
79538;BME280;68989;52.032;5.152;2024-03-23T03:37:17;101098.88;;;12.75;58.35
79538;BME280;68989;52.032;5.152;2024-03-23T03:39:43;101095.27;;;12.74;58.36
79538;BME280;68989;52.032;5.152;2024-03-23T03:42:10;101091.33;;;12.71;58.49
79538;BME280;68989;52.032;5.152;2024-03-23T03:44:39;101091.15;;;12.67;58.51
79538;BME280;68989;52.032;5.152;2024-03-23T03:47:06;101091.79;;;12.66;58.31
79538;BME280;68989;52.032;5.152;2024-03-23T03:49:33;101088.67;;;12.64;58.44
79538;BME280;68989;52.032;5.152;2024-03-23T03:52:00;101083.94;;;12.63;58.36
79538;BME280;68989;52.032;5.152;2024-03-23T03:54:28;101080.13;;;12.61;58.31
79538;BME280;68989;52.032;5.152;2024-03-23T03:56:55;101076.92;;;12.58;58.37
79538;BME280;68989;52.032;5.152;2024-03-23T03:59:22;101072.55;;;12.57;58.25
79538;BME280;68989;52.032;5.152;2024-03-23T04:01:49;101075.67;;;12.55;58.23
79538;BME280;68989;52.032;5.152;2024-03-23T04:04:16;101074.81;;;12.53;58.16
79538;BME280;68989;52.032;5.152;2024-03-23T04:06:44;101070.07;;;12.51;58.16
79538;BME280;68989;52.032;5.152;2024-03-23T04:09:10;101069.69;;;12.49;58.09
79538;BME280;68989;52.032;5.152;2024-03-23T04:11:38;101066.59;;;12.47;58.18
79538;BME280;68989;52.032;5.152;2024-03-23T04:14:05;101065.47;;;12.44;58.18
79538;BME280;68989;52.032;5.152;2024-03-23T04:16:34;101064.43;;;12.43;57.97
79538;BME280;68989;52.032;5.152;2024-03-23T04:19:02;101063.17;;;12.41;58.07
79538;BME280;68989;52.032;5.152;2024-03-23T04:21:29;101064.09;;;12.39;57.99
79538;BME280;68989;52.032;5.152;2024-03-23T04:23:56;101058.72;;;12.37;58.03
79538;BME280;68989;52.032;5.152;2024-03-23T04:26:24;101061.94;;;12.34;58.16
79538;BME280;68989;52.032;5.152;2024-03-23T04:28:50;101062.32;;;12.34;57.89
79538;BME280;68989;52.032;5.152;2024-03-23T04:31:17;101060.01;;;12.31;57.89
79538;BME280;68989;52.032;5.152;2024-03-23T04:33:44;101055.32;;;12.28;57.99
79538;BME280;68989;52.032;5.152;2024-03-23T04:36:11;101060.75;;;12.26;57.92
79538;BME280;68989;52.032;5.152;2024-03-23T04:38:38;101061.03;;;12.24;58.03
79538;BME280;68989;52.032;5.152;2024-03-23T04:41:05;101055.24;;;12.22;57.94
79538;BME280;68989;52.032;5.152;2024-03-23T04:43:33;101057.83;;;12.20;57.96
79538;BME280;68989;52.032;5.152;2024-03-23T04:46:00;101059.23;;;12.19;57.89
79538;BME280;68989;52.032;5.152;2024-03-23T04:48:27;101057.17;;;12.16;58.00
79538;BME280;68989;52.032;5.152;2024-03-23T04:50:55;101052.30;;;12.14;58.08
79538;BME280;68989;52.032;5.152;2024-03-23T04:53:23;101051.14;;;12.13;57.92
79538;BME280;68989;52.032;5.152;2024-03-23T04:55:50;101047.73;;;12.11;57.88
79538;BME280;68989;52.032;5.152;2024-03-23T04:58:17;101048.89;;;12.09;57.78
79538;BME280;68989;52.032;5.152;2024-03-23T05:00:44;101047.08;;;12.06;57.94
79538;BME280;68989;52.032;5.152;2024-03-23T05:03:11;101047.83;;;12.04;58.06
79538;BME280;68989;52.032;5.152;2024-03-23T05:05:39;101051.20;;;12.04;57.93
79538;BME280;68989;52.032;5.152;2024-03-23T05:08:06;101052.09;;;12.03;57.78
79538;BME280;68989;52.032;5.152;2024-03-23T05:10:33;101057.41;;;12.01;57.88
79538;BME280;68989;52.032;5.152;2024-03-23T05:13:01;101055.79;;;12.00;57.57
79538;BME280;68989;52.032;5.152;2024-03-23T05:15:28;101054.96;;;11.97;57.91
79538;BME280;68989;52.032;5.152;2024-03-23T05:17:55;101056.55;;;11.95;57.72
79538;BME280;68989;52.032;5.152;2024-03-23T05:20:22;101057.30;;;11.93;57.89
79538;BME280;68989;52.032;5.152;2024-03-23T05:22:49;101056.35;;;11.92;57.80
79538;BME280;68989;52.032;5.152;2024-03-23T05:25:17;101058.36;;;11.91;57.78
79538;BME280;68989;52.032;5.152;2024-03-23T05:27:44;101066.45;;;11.89;57.72
79538;BME280;68989;52.032;5.152;2024-03-23T05:30:11;101066.58;;;11.88;57.80
79538;BME280;68989;52.032;5.152;2024-03-23T05:32:40;101066.06;;;11.87;57.75
79538;BME280;68989;52.032;5.152;2024-03-23T05:35:07;101066.31;;;11.87;57.78
79538;BME280;68989;52.032;5.152;2024-03-23T05:37:34;101065.67;;;11.85;57.96
79538;BME280;68989;52.032;5.152;2024-03-23T05:40:01;101068.98;;;11.85;57.98
79538;BME280;68989;52.032;5.152;2024-03-23T05:42:29;101065.06;;;11.85;58.07
79538;BME280;68989;52.032;5.152;2024-03-23T05:44:56;101065.26;;;11.85;58.10
79538;BME280;68989;52.032;5.152;2024-03-23T05:47:23;101063.78;;;11.86;58.04
79538;BME280;68989;52.032;5.152;2024-03-23T05:49:50;101059.79;;;11.85;58.16
79538;BME280;68989;52.032;5.152;2024-03-23T05:52:17;101054.79;;;11.85;58.12
79538;BME280;68989;52.032;5.152;2024-03-23T05:54:45;101056.55;;;11.85;58.18
79538;BME280;68989;52.032;5.152;2024-03-23T05:57:12;101054.11;;;11.86;58.16
79538;BME280;68989;52.032;5.152;2024-03-23T05:59:39;101058.55;;;11.86;58.00
79538;BME280;68989;52.032;5.152;2024-03-23T06:02:06;101060.97;;;11.86;58.04
79538;BME280;68989;52.032;5.152;2024-03-23T06:04:33;101062.96;;;11.85;57.88
79538;BME280;68989;52.032;5.152;2024-03-23T06:07:00;101063.79;;;11.85;57.97
79538;BME280;68989;52.032;5.152;2024-03-23T06:09:27;101061.72;;;11.85;58.08
79538;BME280;68989;52.032;5.152;2024-03-23T06:11:54;101059.84;;;11.84;58.15
79538;BME280;68989;52.032;5.152;2024-03-23T06:14:21;101061.54;;;11.84;58.28
79538;BME280;68989;52.032;5.152;2024-03-23T06:16:48;101065.83;;;11.85;58.24
79538;BME280;68989;52.032;5.152;2024-03-23T06:19:15;101065.07;;;11.85;58.34
79538;BME280;68989;52.032;5.152;2024-03-23T06:21:43;101061.80;;;11.87;58.38
79538;BME280;68989;52.032;5.152;2024-03-23T06:24:11;101061.97;;;11.89;58.42
79538;BME280;68989;52.032;5.152;2024-03-23T06:26:38;101058.44;;;11.90;58.58
79538;BME280;68989;52.032;5.152;2024-03-23T06:29:05;101057.37;;;11.92;58.85
79538;BME280;68989;52.032;5.152;2024-03-23T06:31:32;101052.95;;;11.94;58.72
79538;BME280;68989;52.032;5.152;2024-03-23T06:33:59;101056.45;;;11.97;58.80
79538;BME280;68989;52.032;5.152;2024-03-23T06:36:26;101050.37;;;11.99;58.86
79538;BME280;68989;52.032;5.152;2024-03-23T06:38:53;101046.70;;;12.01;58.75
79538;BME280;68989;52.032;5.152;2024-03-23T06:41:19;101044.66;;;12.02;58.79
79538;BME280;68989;52.032;5.152;2024-03-23T06:43:46;101047.37;;;12.03;58.85
79538;BME280;68989;52.032;5.152;2024-03-23T06:46:13;101050.03;;;12.05;58.96
79538;BME280;68989;52.032;5.152;2024-03-23T06:48:40;101050.78;;;12.07;58.87
79538;BME280;68989;52.032;5.152;2024-03-23T06:51:07;101050.57;;;12.09;58.81
79538;BME280;68989;52.032;5.152;2024-03-23T06:53:34;101053.70;;;12.12;58.85
79538;BME280;68989;52.032;5.152;2024-03-23T06:56:01;101054.58;;;12.17;58.75
79538;BME280;68989;52.032;5.152;2024-03-23T06:58:28;101054.26;;;12.21;58.77
79538;BME280;68989;52.032;5.152;2024-03-23T07:00:54;101054.06;;;12.26;58.70
79538;BME280;68989;52.032;5.152;2024-03-23T07:03:21;101051.71;;;12.29;58.59
79538;BME280;68989;52.032;5.152;2024-03-23T07:05:48;101054.63;;;12.33;58.51
79538;BME280;68989;52.032;5.152;2024-03-23T07:08:15;101055.03;;;12.36;58.61
79538;BME280;68989;52.032;5.152;2024-03-23T07:10:42;101059.79;;;12.39;58.40
79538;BME280;68989;52.032;5.152;2024-03-23T07:13:09;101054.65;;;12.41;58.45
79538;BME280;68989;52.032;5.152;2024-03-23T07:15:36;101053.32;;;12.43;58.41
79538;BME280;68989;52.032;5.152;2024-03-23T07:18:03;101057.25;;;12.45;58.33
79538;BME280;68989;52.032;5.152;2024-03-23T07:20:29;101060.19;;;12.46;58.44
79538;BME280;68989;52.032;5.152;2024-03-23T07:22:56;101062.58;;;12.49;58.31
79538;BME280;68989;52.032;5.152;2024-03-23T07:25:23;101062.85;;;12.52;58.55
79538;BME280;68989;52.032;5.152;2024-03-23T07:27:50;101058.96;;;12.55;58.86
79538;BME280;68989;52.032;5.152;2024-03-23T07:30:17;101059.99;;;12.59;59.40
79538;BME280;68989;52.032;5.152;2024-03-23T07:32:44;101059.43;;;12.64;59.26
79538;BME280;68989;52.032;5.152;2024-03-23T07:35:11;101061.51;;;12.70;59.19
79538;BME280;68989;52.032;5.152;2024-03-23T07:37:41;101063.10;;;12.73;58.79
79538;BME280;68989;52.032;5.152;2024-03-23T07:40:09;101067.52;;;12.76;58.79
79538;BME280;68989;52.032;5.152;2024-03-23T07:42:36;101064.48;;;12.80;58.57
79538;BME280;68989;52.032;5.152;2024-03-23T07:45:04;101066.97;;;12.82;58.54
79538;BME280;68989;52.032;5.152;2024-03-23T07:47:31;101065.77;;;12.82;58.15
79538;BME280;68989;52.032;5.152;2024-03-23T07:49:58;101064.33;;;12.84;58.26
79538;BME280;68989;52.032;5.152;2024-03-23T07:52:28;101062.70;;;12.87;58.48
79538;BME280;68989;52.032;5.152;2024-03-23T07:54:54;101057.84;;;12.91;58.42
79538;BME280;68989;52.032;5.152;2024-03-23T07:57:21;101057.79;;;12.96;58.57
79538;BME280;68989;52.032;5.152;2024-03-23T07:59:48;101059.00;;;13.02;58.30
79538;BME280;68989;52.032;5.152;2024-03-23T08:02:15;101052.30;;;13.06;58.48
79538;BME280;68989;52.032;5.152;2024-03-23T08:04:42;101052.59;;;13.09;58.11
79538;BME280;68989;52.032;5.152;2024-03-23T08:07:09;101058.22;;;13.10;58.00
79538;BME280;68989;52.032;5.152;2024-03-23T08:09:36;101057.34;;;13.10;57.79
79538;BME280;68989;52.032;5.152;2024-03-23T08:12:03;101059.12;;;13.08;57.32
79538;BME280;68989;52.032;5.152;2024-03-23T08:14:30;101056.22;;;13.05;57.13
79538;BME280;68989;52.032;5.152;2024-03-23T08:16:57;101051.86;;;13.01;56.73
79538;BME280;68989;52.032;5.152;2024-03-23T08:19:24;101047.45;;;12.99;56.83
79538;BME280;68989;52.032;5.152;2024-03-23T08:21:51;101052.47;;;12.99;57.23
79538;BME280;68989;52.032;5.152;2024-03-23T08:24:18;101061.12;;;13.00;57.13
79538;BME280;68989;52.032;5.152;2024-03-23T08:26:45;101056.35;;;12.98;56.99
79538;BME280;68989;52.032;5.152;2024-03-23T08:29:12;101058.04;;;12.99;57.19
79538;BME280;68989;52.032;5.152;2024-03-23T08:31:40;101061.73;;;12.99;57.42
79538;BME280;68989;52.032;5.152;2024-03-23T08:34:07;101055.62;;;13.00;57.38
79538;BME280;68989;52.032;5.152;2024-03-23T08:36:34;101062.62;;;13.02;57.30
79538;BME280;68989;52.032;5.152;2024-03-23T08:39:00;101068.80;;;13.04;57.40
79538;BME280;68989;52.032;5.152;2024-03-23T08:41:27;101055.66;;;13.07;57.45
79538;BME280;68989;52.032;5.152;2024-03-23T08:43:55;101056.07;;;13.08;57.30
79538;BME280;68989;52.032;5.152;2024-03-23T08:46:22;101060.22;;;13.10;57.34
79538;BME280;68989;52.032;5.152;2024-03-23T08:48:49;101057.02;;;13.14;57.34
79538;BME280;68989;52.032;5.152;2024-03-23T08:51:17;101050.10;;;13.22;57.16
79538;BME280;68989;52.032;5.152;2024-03-23T08:53:44;101051.09;;;13.30;56.91
79538;BME280;68989;52.032;5.152;2024-03-23T08:56:12;101043.61;;;13.40;56.84
79538;BME280;68989;52.032;5.152;2024-03-23T08:58:39;101042.60;;;13.49;56.75
79538;BME280;68989;52.032;5.152;2024-03-23T09:01:08;101039.11;;;13.60;56.44
79538;BME280;68989;52.032;5.152;2024-03-23T09:03:35;101041.65;;;13.68;56.19
79538;BME280;68989;52.032;5.152;2024-03-23T09:06:06;101041.51;;;13.73;55.88
79538;BME280;68989;52.032;5.152;2024-03-23T09:08:34;101045.39;;;13.75;55.58
79538;BME280;68989;52.032;5.152;2024-03-23T09:11:03;101039.78;;;13.75;54.83
79538;BME280;68989;52.032;5.152;2024-03-23T09:13:30;101041.16;;;13.75;54.87
79538;BME280;68989;52.032;5.152;2024-03-23T09:15:57;101041.56;;;13.72;54.72
79538;BME280;68989;52.032;5.152;2024-03-23T09:18:24;101039.33;;;13.70;54.82
79538;BME280;68989;52.032;5.152;2024-03-23T09:20:51;101029.04;;;13.69;54.98
79538;BME280;68989;52.032;5.152;2024-03-23T09:23:18;101033.02;;;13.71;55.28
79538;BME280;68989;52.032;5.152;2024-03-23T09:25:45;101029.39;;;13.73;55.30
79538;BME280;68989;52.032;5.152;2024-03-23T09:28:12;101024.72;;;13.75;55.11
79538;BME280;68989;52.032;5.152;2024-03-23T09:30:39;101030.67;;;13.80;55.29
79538;BME280;68989;52.032;5.152;2024-03-23T09:33:06;101032.64;;;13.84;55.16
79538;BME280;68989;52.032;5.152;2024-03-23T09:35:37;101035.27;;;13.87;54.69
79538;BME280;68989;52.032;5.152;2024-03-23T09:38:05;101032.93;;;13.88;54.46
79538;BME280;68989;52.032;5.152;2024-03-23T09:40:31;101035.75;;;13.90;54.26
79538;BME280;68989;52.032;5.152;2024-03-23T09:42:59;101031.98;;;13.89;54.08
79538;BME280;68989;52.032;5.152;2024-03-23T09:45:28;101037.85;;;13.90;54.20
79538;BME280;68989;52.032;5.152;2024-03-23T09:47:55;101040.86;;;13.93;54.31
79538;BME280;68989;52.032;5.152;2024-03-23T09:50:23;101036.94;;;13.96;54.24
79538;BME280;68989;52.032;5.152;2024-03-23T09:52:51;101037.72;;;13.97;54.20
79538;BME280;68989;52.032;5.152;2024-03-23T09:55:18;101032.15;;;13.93;53.95
79538;BME280;68989;52.032;5.152;2024-03-23T09:57:45;101033.66;;;13.92;53.74
79538;BME280;68989;52.032;5.152;2024-03-23T10:00:13;101033.31;;;13.92;53.57
79538;BME280;68989;52.032;5.152;2024-03-23T10:02:41;101034.99;;;13.92;53.30
79538;BME280;68989;52.032;5.152;2024-03-23T10:05:20;101034.19;;;13.93;53.21
79538;BME280;68989;52.032;5.152;2024-03-23T10:07:47;101029.83;;;13.96;52.99
79538;BME280;68989;52.032;5.152;2024-03-23T10:10:16;101036.71;;;14.00;52.76
79538;BME280;68989;52.032;5.152;2024-03-23T10:12:45;101040.18;;;14.03;52.56
79538;BME280;68989;52.032;5.152;2024-03-23T10:15:19;101037.02;;;14.04;52.63
79538;BME280;68989;52.032;5.152;2024-03-23T10:17:46;101027.33;;;14.08;52.92
79538;BME280;68989;52.032;5.152;2024-03-23T10:20:19;101022.79;;;14.13;52.56
79538;BME280;68989;52.032;5.152;2024-03-23T10:22:48;101023.65;;;14.22;52.54
79538;BME280;68989;52.032;5.152;2024-03-23T10:25:15;101022.05;;;14.28;52.25
79538;BME280;68989;52.032;5.152;2024-03-23T10:27:43;101026.67;;;14.44;51.91
79538;BME280;68989;52.032;5.152;2024-03-23T10:30:12;101025.53;;;14.62;51.68
79538;BME280;68989;52.032;5.152;2024-03-23T10:32:40;101036.87;;;14.80;50.65
79538;BME280;68989;52.032;5.152;2024-03-23T10:35:16;101047.95;;;14.78;49.13
79538;BME280;68989;52.032;5.152;2024-03-23T10:37:43;101049.52;;;14.81;49.42
79538;BME280;68989;52.032;5.152;2024-03-23T10:40:12;101050.39;;;14.74;49.08
79538;BME280;68989;52.032;5.152;2024-03-23T10:42:40;101047.69;;;14.65;49.42
79538;BME280;68989;52.032;5.152;2024-03-23T10:45:08;101047.64;;;14.59;49.94
79538;BME280;68989;52.032;5.152;2024-03-23T10:47:37;101041.18;;;14.48;49.42
79538;BME280;68989;52.032;5.152;2024-03-23T10:50:05;101032.25;;;14.48;50.47
79538;BME280;68989;52.032;5.152;2024-03-23T10:52:32;101035.97;;;14.47;50.79
79538;BME280;68989;52.032;5.152;2024-03-23T10:55:02;101038.21;;;14.46;50.91
79538;BME280;68989;52.032;5.152;2024-03-23T10:57:34;101041.79;;;14.43;50.82
79538;BME280;68989;52.032;5.152;2024-03-23T11:00:03;101031.69;;;14.35;50.73
79538;BME280;68989;52.032;5.152;2024-03-23T11:02:30;101030.29;;;14.28;51.20
79538;BME280;68989;52.032;5.152;2024-03-23T11:04:58;101031.03;;;14.27;51.51
79538;BME280;68989;52.032;5.152;2024-03-23T11:07:33;101025.49;;;14.23;51.52
79538;BME280;68989;52.032;5.152;2024-03-23T11:10:00;101030.06;;;14.19;51.39
79538;BME280;68989;52.032;5.152;2024-03-23T11:12:29;101025.56;;;14.14;51.54
79538;BME280;68989;52.032;5.152;2024-03-23T11:15:01;101027.84;;;14.10;51.30
79538;BME280;68989;52.032;5.152;2024-03-23T11:17:28;101023.32;;;14.09;51.87
79538;BME280;68989;52.032;5.152;2024-03-23T11:19:57;101024.64;;;14.07;51.99
79538;BME280;68989;52.032;5.152;2024-03-23T11:22:42;101025.31;;;14.08;52.22
79538;BME280;68989;52.032;5.152;2024-03-23T11:25:13;101024.75;;;14.07;52.06
79538;BME280;68989;52.032;5.152;2024-03-23T11:27:41;101018.39;;;14.11;52.27
79538;BME280;68989;52.032;5.152;2024-03-23T11:30:11;101013.04;;;14.20;51.96
79538;BME280;68989;52.032;5.152;2024-03-23T11:32:40;101009.10;;;14.33;51.64
79538;BME280;68989;52.032;5.152;2024-03-23T11:35:07;101026.66;;;14.43;51.54
79538;BME280;68989;52.032;5.152;2024-03-23T11:37:34;101020.26;;;14.48;51.16
79538;BME280;68989;52.032;5.152;2024-03-23T11:40:15;101019.60;;;14.50;50.97
79538;BME280;68989;52.032;5.152;2024-03-23T11:42:42;101011.19;;;14.52;50.94
79538;BME280;68989;52.032;5.152;2024-03-23T11:45:10;101011.52;;;14.53;50.07
79538;BME280;68989;52.032;5.152;2024-03-23T11:47:39;101020.09;;;14.61;49.71
79538;BME280;68989;52.032;5.152;2024-03-23T11:50:06;101009.85;;;14.66;49.45
79538;BME280;68989;52.032;5.152;2024-03-23T11:52:33;101014.77;;;14.71;49.76
79538;BME280;68989;52.032;5.152;2024-03-23T11:55:04;101007.27;;;14.71;49.61
79538;BME280;68989;52.032;5.152;2024-03-23T11:57:31;101007.97;;;14.70;49.48
79538;BME280;68989;52.032;5.152;2024-03-23T11:59:58;101003.70;;;14.67;49.74
79538;BME280;68989;52.032;5.152;2024-03-23T12:02:25;101000.46;;;14.69;50.27
79538;BME280;68989;52.032;5.152;2024-03-23T12:04:52;100994.76;;;14.78;50.10
79538;BME280;68989;52.032;5.152;2024-03-23T12:07:20;100993.09;;;14.90;50.16
79538;BME280;68989;52.032;5.152;2024-03-23T12:10:02;100987.88;;;15.06;48.45
79538;BME280;68989;52.032;5.152;2024-03-23T12:12:30;100980.94;;;15.26;48.88
79538;BME280;68989;52.032;5.152;2024-03-23T12:15:02;100979.06;;;15.46;48.71
79538;BME280;68989;52.032;5.152;2024-03-23T12:17:30;100979.16;;;15.63;47.66
79538;BME280;68989;52.032;5.152;2024-03-23T12:19:57;100981.02;;;15.72;46.47
79538;BME280;68989;52.032;5.152;2024-03-23T12:22:24;100977.65;;;15.77;45.85
79538;BME280;68989;52.032;5.152;2024-03-23T12:24:51;100981.70;;;15.79;46.23
79538;BME280;68989;52.032;5.152;2024-03-23T12:27:18;100978.45;;;15.77;45.67
79538;BME280;68989;52.032;5.152;2024-03-23T12:29:45;100975.80;;;15.70;44.74
79538;BME280;68989;52.032;5.152;2024-03-23T12:32:13;100975.60;;;15.66;44.35
79538;BME280;68989;52.032;5.152;2024-03-23T12:34:40;100975.49;;;15.67;45.27
79538;BME280;68989;52.032;5.152;2024-03-23T12:37:07;100967.90;;;15.69;45.29
79538;BME280;68989;52.032;5.152;2024-03-23T12:39:34;100962.72;;;15.66;45.01
79538;BME280;68989;52.032;5.152;2024-03-23T12:42:01;100971.71;;;15.61;44.55
79538;BME280;68989;52.032;5.152;2024-03-23T12:44:29;100968.96;;;15.52;45.20
79538;BME280;68989;52.032;5.152;2024-03-23T12:46:56;100959.94;;;15.40;44.18
79538;BME280;68989;52.032;5.152;2024-03-23T12:49:22;100955.82;;;15.43;43.95
79538;BME280;68989;52.032;5.152;2024-03-23T12:51:54;100961.64;;;15.51;44.41
79538;BME280;68989;52.032;5.152;2024-03-23T12:54:21;100960.79;;;15.62;44.43
79538;BME280;68989;52.032;5.152;2024-03-23T12:56:49;100958.75;;;15.72;44.95
79538;BME280;68989;52.032;5.152;2024-03-23T12:59:17;100966.24;;;15.78;43.77
79538;BME280;68989;52.032;5.152;2024-03-23T13:01:43;100950.79;;;15.86;44.35
79538;BME280;68989;52.032;5.152;2024-03-23T13:04:10;100959.48;;;15.97;44.47
79538;BME280;68989;52.032;5.152;2024-03-23T13:06:37;100961.49;;;16.07;44.47
79538;BME280;68989;52.032;5.152;2024-03-23T13:09:04;100979.82;;;16.12;43.75
79538;BME280;68989;52.032;5.152;2024-03-23T13:11:32;100988.85;;;16.15;44.12
79538;BME280;68989;52.032;5.152;2024-03-23T13:13:58;100991.27;;;16.11;44.40
79538;BME280;68989;52.032;5.152;2024-03-23T13:16:25;100988.01;;;16.03;45.94
79538;BME280;68989;52.032;5.152;2024-03-23T13:18:52;100985.63;;;15.94;46.55
79538;BME280;68989;52.032;5.152;2024-03-23T13:21:19;100982.61;;;15.84;46.87
79538;BME280;68989;52.032;5.152;2024-03-23T13:23:47;100974.56;;;15.79;47.30
79538;BME280;68989;52.032;5.152;2024-03-23T13:26:14;100973.99;;;15.81;47.10
79538;BME280;68989;52.032;5.152;2024-03-23T13:28:41;100969.10;;;15.87;46.98
79538;BME280;68989;52.032;5.152;2024-03-23T13:31:08;100974.14;;;15.92;46.60
79538;BME280;68989;52.032;5.152;2024-03-23T13:33:35;100974.83;;;15.93;45.84
79538;BME280;68989;52.032;5.152;2024-03-23T13:36:03;100979.00;;;15.96;45.74
79538;BME280;68989;52.032;5.152;2024-03-23T13:38:31;100983.13;;;15.99;44.73
79538;BME280;68989;52.032;5.152;2024-03-23T13:40:59;100981.80;;;15.91;45.11
79538;BME280;68989;52.032;5.152;2024-03-23T13:43:27;100975.88;;;15.81;45.28
79538;BME280;68989;52.032;5.152;2024-03-23T13:45:56;100953.85;;;15.66;45.37